createdAt,value
2023-01-26T00:00:01.471Z,267.00
2023-01-26T00:02:46.779Z,246.57
2023-01-26T00:05:32.353Z,267.50
2023-01-26T00:08:20.015Z,272.30
2023-01-26T00:11:07.215Z,242.45
2023-01-26T00:13:55.208Z,261.75
2023-01-26T00:16:40.689Z,274.75
2023-01-26T00:19:26.333Z,254.65
2023-01-26T00:22:11.876Z,256.25
2023-01-26T00:25:01.450Z,236.63
2023-01-26T00:27:50.542Z,235.10
2023-01-26T00:30:35.976Z,236.02
2023-01-26T00:33:27.415Z,213.23
2023-01-26T00:36:13.664Z,202.40
2023-01-26T00:38:59.191Z,212.90
2023-01-26T00:42:03.181Z,212.55
2023-01-26T00:44:51.703Z,221.02
2023-01-26T00:47:37.072Z,201.95
2023-01-26T00:50:25.771Z,208.38
2023-01-26T00:53:11.330Z,215.73
2023-01-26T00:55:58.116Z,186.45
2023-01-26T00:58:45.521Z,201.25
2023-01-26T01:01:31.095Z,204.20
2023-01-26T01:04:17.930Z,195.10
2023-01-26T01:07:03.903Z,164.82
2023-01-26T01:09:54.143Z,202.70
2023-01-26T01:12:42.658Z,187.43
2023-01-26T01:15:28.163Z,196.00
2023-01-26T01:18:16.565Z,181.02
2023-01-26T01:21:11.381Z,187.60
2023-01-26T01:24:06.148Z,191.32
2023-01-26T01:26:51.617Z,175.00
2023-01-26T01:29:37.355Z,196.30
2023-01-26T01:32:22.820Z,180.25
2023-01-26T01:35:08.694Z,201.93
2023-01-26T01:37:57.135Z,184.95
2023-01-26T01:40:46.564Z,180.20
2023-01-26T01:43:31.897Z,191.30
2023-01-26T01:46:35.603Z,199.48
2023-01-26T01:49:45.406Z,180.57
2023-01-26T01:52:37.102Z,187.52
2023-01-26T01:55:32.389Z,201.35
2023-01-26T01:58:18.811Z,169.20
2023-01-26T02:01:04.282Z,191.95
2023-01-26T02:03:52.255Z,164.73
2023-01-26T02:06:53.169Z,178.00
2023-01-26T02:09:58.825Z,169.35
2023-01-26T02:12:47.399Z,172.10
2023-01-26T02:15:36.147Z,186.02
2023-01-26T02:18:21.687Z,177.70
2023-01-26T02:21:09.872Z,182.45
2023-01-26T02:24:15.362Z,192.20
2023-01-26T02:29:50.833Z,190.82
2023-01-26T02:32:44.330Z,195.55
2023-01-26T02:35:29.869Z,195.70
2023-01-26T02:38:16.256Z,200.25
2023-01-26T02:41:11.289Z,193.27
2023-01-26T02:43:59.863Z,198.88
2023-01-26T02:46:45.659Z,245.63
2023-01-26T02:49:47.670Z,213.35
2023-01-26T02:52:34.469Z,215.50
2023-01-26T02:55:39.972Z,209.85
2023-01-26T02:58:27.205Z,228.00
2023-01-26T03:01:12.779Z,186.63
2023-01-26T03:04:05.618Z,220.38
2023-01-26T03:06:56.372Z,187.95
2023-01-26T03:09:41.884Z,217.68
2023-01-26T03:12:27.793Z,229.40
2023-01-26T03:15:31.962Z,227.52
2023-01-26T03:18:46.069Z,209.30
2023-01-26T03:21:50.016Z,190.80
2023-01-26T03:24:57.254Z,216.65
2023-01-26T03:27:49.383Z,204.23
2023-01-26T03:30:35.610Z,197.07
2023-01-26T03:33:22.068Z,210.70
2023-01-26T03:36:14.296Z,200.55
2023-01-26T03:38:59.947Z,199.68
2023-01-26T03:42:07.679Z,194.93
2023-01-26T03:45:12.405Z,193.65
2023-01-26T03:48:26.872Z,193.20
2023-01-26T03:51:30.954Z,180.55
2023-01-26T03:54:35.705Z,197.38
2023-01-26T03:57:25.212Z,192.48
2023-01-26T04:00:17.381Z,211.45
2023-01-26T04:03:22.498Z,179.60
2023-01-26T04:06:39.086Z,199.07
2023-01-26T04:09:24.680Z,179.10
2023-01-26T04:12:11.819Z,188.75
2023-01-26T04:15:25.883Z,191.13
2023-01-26T04:18:29.495Z,199.48
2023-01-26T04:21:32.285Z,135.27
2023-01-26T04:24:22.725Z,155.65
2023-01-26T04:27:12.836Z,165.25
2023-01-26T04:29:59.796Z,169.45
2023-01-26T04:32:46.357Z,166.00
2023-01-26T04:35:33.243Z,150.38
2023-01-26T04:38:18.760Z,156.43
2023-01-26T04:41:04.366Z,162.73
2023-01-26T04:43:55.744Z,145.93
2023-01-26T04:46:41.898Z,149.38
2023-01-26T04:49:32.449Z,155.05
2023-01-26T04:52:18.315Z,149.98
2023-01-26T04:55:04.236Z,154.85
2023-01-26T04:57:51.493Z,144.68
2023-01-26T05:00:37.114Z,146.73
2023-01-26T05:03:38.079Z,149.13
2023-01-26T05:06:23.848Z,138.68
2023-01-26T05:09:09.816Z,142.82
2023-01-26T05:12:30.374Z,140.40
2023-01-26T05:15:42.371Z,154.77
2023-01-26T05:18:35.114Z,137.70
2023-01-26T05:21:35.265Z,143.07
2023-01-26T05:24:23.550Z,154.57
2023-01-26T05:27:29.473Z,128.55
2023-01-26T05:33:29.688Z,137.13
2023-01-26T05:36:18.537Z,124.82
2023-01-26T05:39:03.972Z,130.63
2023-01-26T05:41:54.525Z,123.93
2023-01-26T05:45:20.655Z,130.48
2023-01-26T05:48:08.199Z,115.82
2023-01-26T05:50:57.108Z,127.75
2023-01-26T05:53:42.695Z,124.10
2023-01-26T05:56:27.993Z,122.85
2023-01-26T05:59:18.200Z,123.55
2023-01-26T06:02:04.329Z,116.93
2023-01-26T06:04:50.006Z,122.60
2023-01-26T06:07:38.027Z,123.18
2023-01-26T06:10:29.853Z,125.50
2023-01-26T06:13:21.097Z,130.48
2023-01-26T06:16:13.844Z,135.50
2023-01-26T06:18:59.094Z,155.90
2023-01-26T06:21:44.622Z,152.25
2023-01-26T06:24:34.120Z,156.63
2023-01-26T06:27:23.550Z,152.18
2023-01-26T06:30:11.438Z,193.73
2023-01-26T06:32:59.787Z,218.40
2023-01-26T06:35:48.079Z,263.23
2023-01-26T06:38:36.728Z,312.60
2023-01-26T06:41:28.579Z,312.40
2023-01-26T06:44:17.182Z,331.67
2023-01-26T06:47:05.540Z,447.15
2023-01-26T06:49:51.215Z,337.40
2023-01-26T06:52:36.850Z,566.97
2023-01-26T06:55:38.730Z,509.27
2023-01-26T06:58:45.956Z,455.02
2023-01-26T07:01:51.618Z,517.45
2023-01-26T07:04:39.897Z,418.05
2023-01-26T07:07:25.363Z,518.53
2023-01-26T07:10:13.563Z,347.10
2023-01-26T07:12:58.784Z,339.83
2023-01-26T07:15:44.421Z,296.00
2023-01-26T07:18:30.034Z,233.95
2023-01-26T07:21:23.155Z,238.48
2023-01-26T07:24:09.531Z,216.25
2023-01-26T07:26:56.202Z,186.77
2023-01-26T07:29:41.600Z,176.00
2023-01-26T07:32:29.588Z,160.93
2023-01-26T07:35:15.173Z,174.27
2023-01-26T07:38:00.423Z,150.50
2023-01-26T07:40:48.726Z,134.63
2023-01-26T07:43:36.004Z,136.63
2023-01-26T07:46:21.343Z,112.28
2023-01-26T07:49:07.335Z,103.28
2023-01-26T07:51:54.014Z,83.00
2023-01-26T07:54:39.329Z,82.05
2023-01-26T07:57:24.866Z,77.28
2023-01-26T08:00:12.289Z,64.07
2023-01-26T08:02:57.894Z,49.17
2023-01-26T08:05:43.596Z,65.75
2023-01-26T08:08:29.231Z,70.85
2023-01-26T08:11:14.578Z,53.47
2023-01-26T08:14:15.012Z,52.08
2023-01-26T08:17:03.649Z,49.63
2023-01-26T08:19:49.256Z,45.42
2023-01-26T08:22:34.706Z,54.60
2023-01-26T08:25:23.091Z,57.03
2023-01-26T08:28:08.685Z,50.25
2023-01-26T08:30:54.120Z,49.45
2023-01-26T08:33:41.752Z,52.03
2023-01-26T08:36:28.516Z,54.55
2023-01-26T08:39:14.129Z,40.47
2023-01-26T08:41:59.667Z,47.90
2023-01-26T08:44:44.914Z,47.47
2023-01-26T08:47:31.087Z,63.85
2023-01-26T08:50:17.154Z,51.53
2023-01-26T08:53:02.370Z,54.55
2023-01-26T08:55:48.509Z,49.85
2023-01-26T08:58:43.335Z,45.58
2023-01-26T09:01:28.661Z,34.33
2023-01-26T09:04:14.161Z,53.65
2023-01-26T09:07:00.180Z,51.45
2023-01-26T09:09:45.647Z,55.85
2023-01-26T09:12:31.118Z,46.45
2023-01-26T09:15:17.220Z,51.50
2023-01-26T09:18:02.866Z,48.38
2023-01-26T09:20:49.816Z,58.83
2023-01-26T09:23:44.207Z,47.30
2023-01-26T09:26:30.965Z,48.30
2023-01-26T09:29:16.744Z,53.13
2023-01-26T09:32:01.976Z,60.42
2023-01-26T09:34:47.339Z,51.75
2023-01-26T09:37:34.539Z,60.13
2023-01-26T09:40:32.029Z,53.58
2023-01-26T09:43:27.665Z,44.38
2023-01-26T09:46:23.925Z,71.70
2023-01-26T09:49:14.316Z,48.00
2023-01-26T09:52:26.291Z,48.47
2023-01-26T09:55:17.343Z,50.75
2023-01-26T09:58:12.911Z,57.28
2023-01-26T10:03:57.214Z,51.55
2023-01-26T10:06:44.349Z,44.63
2023-01-26T10:09:46.062Z,53.30
2023-01-26T10:12:36.341Z,35.90
2023-01-26T10:15:21.674Z,43.55
2023-01-26T10:18:13.520Z,48.92
2023-01-26T10:21:01.994Z,44.72
2023-01-26T10:23:48.940Z,45.42
2023-01-26T10:26:37.531Z,59.95
2023-01-26T10:29:24.221Z,50.85
2023-01-26T10:32:14.329Z,53.00
2023-01-26T10:34:59.772Z,42.92
2023-01-26T10:37:45.788Z,41.78
2023-01-26T10:40:44.657Z,40.08
2023-01-26T10:43:40.520Z,52.10
2023-01-26T10:46:36.231Z,52.78
2023-01-26T10:49:27.732Z,46.90
2023-01-26T10:52:22.083Z,47.50
2023-01-26T10:55:24.291Z,41.17
2023-01-26T10:58:41.139Z,37.97
2023-01-26T11:01:58.716Z,43.83
2023-01-26T11:05:02.354Z,35.50
2023-01-26T11:07:55.351Z,43.47
2023-01-26T11:10:52.243Z,38.40
2023-01-26T11:13:37.726Z,47.97
2023-01-26T11:16:26.214Z,39.78
2023-01-26T11:19:30.618Z,38.58
2023-01-26T11:22:22.324Z,26.83
2023-01-26T11:25:16.369Z,33.03
2023-01-26T11:28:20.533Z,32.80
2023-01-26T11:31:41.902Z,36.92
2023-01-26T11:35:01.767Z,21.08
2023-01-26T11:38:15.571Z,23.83
2023-01-26T11:41:19.356Z,25.10
2023-01-26T11:44:35.390Z,23.50
2023-01-26T11:47:42.960Z,22.10
2023-01-26T11:50:44.064Z,24.23
2023-01-26T11:54:09.090Z,22.27
2023-01-26T11:57:05.323Z,18.58
2023-01-26T12:00:00.033Z,21.58
2023-01-26T12:03:00.326Z,15.82
2023-01-26T12:05:57.462Z,20.98
2023-01-26T12:08:52.933Z,13.32
2023-01-26T12:11:47.000Z,17.73
2023-01-26T12:14:46.953Z,14.60
2023-01-26T12:17:53.879Z,16.35
2023-01-26T12:21:04.377Z,24.67
2023-01-26T12:24:46.740Z,27.48
2023-01-26T12:27:37.180Z,23.83
2023-01-26T12:30:55.326Z,24.90
2023-01-26T12:33:42.045Z,24.67
2023-01-26T12:36:59.636Z,25.17
2023-01-26T12:39:54.106Z,22.05
2023-01-26T12:42:51.275Z,24.35
2023-01-26T12:45:47.525Z,21.75
2023-01-26T12:48:45.531Z,18.73
2023-01-26T12:51:35.566Z,21.15
2023-01-26T12:54:45.078Z,24.52
2023-01-26T12:57:44.747Z,18.92
2023-01-26T13:00:33.467Z,25.67
2023-01-26T13:03:31.201Z,23.77
2023-01-26T13:06:16.828Z,25.90
2023-01-26T13:09:19.173Z,24.42
2023-01-26T13:12:04.440Z,24.23
2023-01-26T13:14:49.654Z,17.33
2023-01-26T13:17:52.940Z,18.42
2023-01-26T13:20:48.948Z,16.00
2023-01-26T13:23:44.524Z,19.02
2023-01-26T13:26:32.942Z,12.10
2023-01-26T13:29:36.278Z,12.20
2023-01-26T13:32:21.684Z,20.02
2023-01-26T13:35:13.016Z,19.00
2023-01-26T13:38:14.193Z,13.90
2023-01-26T13:40:59.705Z,16.75
2023-01-26T13:43:59.155Z,16.73
2023-01-26T13:46:54.058Z,18.98
2023-01-26T13:49:46.087Z,19.00
2023-01-26T13:52:31.390Z,22.52
2023-01-26T13:55:30.935Z,18.45
2023-01-26T13:58:18.749Z,25.20
2023-01-26T14:01:12.583Z,17.05
2023-01-26T14:04:06.508Z,16.05
2023-01-26T14:07:19.282Z,21.85
2023-01-26T14:10:06.699Z,22.65
2023-01-26T14:12:57.305Z,19.17
2023-01-26T14:15:42.931Z,24.33
2023-01-26T14:18:28.863Z,13.90
2023-01-26T14:21:23.593Z,13.82
2023-01-26T14:24:12.474Z,13.27
2023-01-26T14:26:59.354Z,14.40
2023-01-26T14:29:45.094Z,9.98
2023-01-26T14:32:31.339Z,13.30
2023-01-26T14:35:23.425Z,14.57
2023-01-26T14:38:11.617Z,11.45
2023-01-26T14:41:00.035Z,15.27
2023-01-26T14:43:45.334Z,16.30
2023-01-26T14:46:50.562Z,16.35
2023-01-26T14:49:51.636Z,14.32
2023-01-26T14:52:44.994Z,16.58
2023-01-26T14:55:34.564Z,17.25
2023-01-26T14:58:29.559Z,15.65
2023-01-26T15:01:22.065Z,19.25
2023-01-26T15:04:28.626Z,15.93
2023-01-26T15:07:35.867Z,17.10
2023-01-26T15:10:37.806Z,18.15
2023-01-26T15:13:25.254Z,18.98
2023-01-26T15:16:19.635Z,17.27
2023-01-26T15:19:12.020Z,15.38
2023-01-26T15:21:57.239Z,13.93
2023-01-26T15:24:43.824Z,13.43
2023-01-26T15:27:37.074Z,18.58
2023-01-26T15:30:32.918Z,23.50
2023-01-26T15:36:35.804Z,21.98
2023-01-26T15:39:24.970Z,16.75
2023-01-26T15:42:21.942Z,13.90
2023-01-26T15:45:37.080Z,11.75
2023-01-26T15:48:24.714Z,12.98
2023-01-26T15:54:24.616Z,19.10
2023-01-26T15:57:12.405Z,13.93
2023-01-26T15:59:58.002Z,15.98
2023-01-26T16:02:44.136Z,9.52
2023-01-26T16:05:32.750Z,9.50
2023-01-26T16:08:19.015Z,14.63
2023-01-26T16:11:09.512Z,9.85
2023-01-26T16:14:03.192Z,13.88
2023-01-26T16:16:50.223Z,14.40
2023-01-26T16:19:35.935Z,11.55
2023-01-26T16:22:26.675Z,18.67
2023-01-26T16:25:31.810Z,16.40
2023-01-26T16:28:18.032Z,9.00
2023-01-26T16:31:12.877Z,12.73
2023-01-26T16:39:30.010Z,18.13
2023-01-26T16:42:20.083Z,13.55
2023-01-26T16:45:08.325Z,18.98
2023-01-26T16:47:57.459Z,17.33
2023-01-26T16:50:48.568Z,13.65
2023-01-26T16:53:35.073Z,14.32
2023-01-26T16:56:21.312Z,19.15
2023-01-26T16:59:06.991Z,11.48
2023-01-26T17:02:01.725Z,19.90
2023-01-26T17:04:47.061Z,14.65
2023-01-26T17:07:32.492Z,14.68
2023-01-26T17:10:55.751Z,18.42
2023-01-26T17:13:46.884Z,12.40
2023-01-26T17:16:33.225Z,16.85
2023-01-26T17:19:18.922Z,22.02
2023-01-26T17:22:07.621Z,32.08
2023-01-26T17:24:53.293Z,25.98
2023-01-26T17:27:38.842Z,20.13
2023-01-26T17:30:24.482Z,22.00
2023-01-26T17:33:10.039Z,19.88
2023-01-26T17:36:07.135Z,27.40
2023-01-26T17:38:53.199Z,23.33
2023-01-26T17:41:41.510Z,19.55
2023-01-26T17:44:27.051Z,26.55
2023-01-26T17:47:12.641Z,21.90
2023-01-26T17:49:58.183Z,21.48
2023-01-26T17:52:43.800Z,20.80
2023-01-26T17:55:31.977Z,18.15
2023-01-26T17:58:17.729Z,18.83
2023-01-26T18:01:04.595Z,17.92
2023-01-26T18:03:50.757Z,23.65
2023-01-26T18:06:35.910Z,21.98
2023-01-26T18:09:22.013Z,12.50
2023-01-26T18:12:14.623Z,26.35
2023-01-26T18:15:00.734Z,16.30
2023-01-26T18:17:45.943Z,18.63
2023-01-26T18:20:31.818Z,17.23
2023-01-26T18:23:17.912Z,15.77
2023-01-26T18:26:05.015Z,23.05
2023-01-26T18:28:51.161Z,22.60
2023-01-26T18:31:43.514Z,22.05
2023-01-26T18:34:29.200Z,20.80
2023-01-26T18:37:14.784Z,12.20
2023-01-26T18:40:00.672Z,18.33
2023-01-26T18:42:46.993Z,14.40
2023-01-26T18:45:32.580Z,20.17
2023-01-26T18:48:17.864Z,16.55
2023-01-26T18:51:08.320Z,18.92
2023-01-26T18:53:54.150Z,18.13
2023-01-26T18:56:39.518Z,25.40
2023-01-26T18:59:25.103Z,19.45
2023-01-26T19:02:17.188Z,17.38
2023-01-26T19:05:02.448Z,19.65
2023-01-26T19:07:47.844Z,17.13
2023-01-26T19:10:34.648Z,21.67
2023-01-26T19:13:20.073Z,18.67
2023-01-26T19:16:07.955Z,19.33
2023-01-26T19:19:01.744Z,14.98
2023-01-26T19:21:47.296Z,23.13
2023-01-26T19:24:37.756Z,19.38
2023-01-26T19:27:23.222Z,18.80
2023-01-26T19:30:09.597Z,18.90
2023-01-26T19:33:13.352Z,20.33
2023-01-26T19:36:01.720Z,26.20
2023-01-26T19:38:47.855Z,26.33
2023-01-26T19:41:35.886Z,19.08
2023-01-26T19:44:21.516Z,21.88
2023-01-26T19:47:08.439Z,30.60
2023-01-26T19:49:54.201Z,31.08
2023-01-26T19:52:39.608Z,26.58
2023-01-26T19:55:24.907Z,21.70
2023-01-26T19:58:11.047Z,21.02
2023-01-26T20:01:01.211Z,26.05
2023-01-26T20:03:54.740Z,23.55
2023-01-26T20:06:40.414Z,23.27
2023-01-26T20:09:26.030Z,29.45
2023-01-26T20:12:11.453Z,28.85
2023-01-26T20:14:59.038Z,31.25
2023-01-26T20:17:45.958Z,23.33
2023-01-26T20:20:31.788Z,25.50
2023-01-26T20:23:17.476Z,17.17
2023-01-26T20:26:07.849Z,19.08
2023-01-26T20:28:56.900Z,26.13
2023-01-26T20:31:44.779Z,26.80
2023-01-26T20:34:30.287Z,30.45
2023-01-26T20:37:16.591Z,18.40
2023-01-26T20:40:02.579Z,28.80
2023-01-26T20:42:54.468Z,20.33
2023-01-26T20:45:41.236Z,22.48
2023-01-26T20:48:29.422Z,29.35
2023-01-26T20:51:21.044Z,28.67
2023-01-26T20:54:09.484Z,27.00
2023-01-26T20:56:55.115Z,27.80
2023-01-26T20:59:40.639Z,24.35
2023-01-26T21:02:26.655Z,19.35
2023-01-26T21:05:12.144Z,33.08
2023-01-26T21:07:57.679Z,29.33
2023-01-26T21:10:46.159Z,21.65
2023-01-26T21:13:31.747Z,26.40
2023-01-26T21:16:20.321Z,31.52
2023-01-26T21:19:08.919Z,27.35
2023-01-26T21:21:54.284Z,21.88
2023-01-26T21:24:39.808Z,22.27
2023-01-26T21:27:25.264Z,27.13
2023-01-26T21:30:11.834Z,30.08
2023-01-26T21:33:00.586Z,29.90
2023-01-26T21:35:45.815Z,38.38
2023-01-26T21:38:36.250Z,46.00
2023-01-26T21:41:42.866Z,34.28
2023-01-26T21:44:53.269Z,30.38
2023-01-26T21:47:38.969Z,30.02
2023-01-26T21:50:52.095Z,28.23
2023-01-26T21:53:38.375Z,24.33
2023-01-26T21:56:26.990Z,34.03
2023-01-26T21:59:15.597Z,37.17
2023-01-26T22:02:01.205Z,19.27
2023-01-26T22:04:52.831Z,34.80
2023-01-26T22:07:38.464Z,33.42
2023-01-26T22:10:23.959Z,34.33
2023-01-26T22:13:09.671Z,39.08
2023-01-26T22:16:04.190Z,28.27
2023-01-26T22:18:50.633Z,22.52
2023-01-26T22:21:36.812Z,30.73
2023-01-26T22:24:22.137Z,31.65
2023-01-26T22:27:10.658Z,33.83
2023-01-26T22:29:56.311Z,31.45
2023-01-26T22:32:42.859Z,32.03
2023-01-26T22:35:29.843Z,25.60
2023-01-26T22:38:15.163Z,27.02
2023-01-26T22:41:05.445Z,32.25
2023-01-26T22:43:54.239Z,36.00
2023-01-26T22:46:39.646Z,35.78
2023-01-26T22:49:25.169Z,29.50
2023-01-26T22:52:10.916Z,26.80
2023-01-26T22:54:56.517Z,31.10
2023-01-26T22:57:41.703Z,37.08
2023-01-26T23:00:27.491Z,30.98
2023-01-26T23:03:13.912Z,46.97
2023-01-26T23:06:07.318Z,39.13
2023-01-26T23:08:53.077Z,37.40
2023-01-26T23:11:41.356Z,29.38
2023-01-26T23:14:27.300Z,36.80
2023-01-26T23:17:13.036Z,34.17
2023-01-26T23:19:58.560Z,34.78
2023-01-26T23:22:43.929Z,43.67
2023-01-26T23:25:51.089Z,29.77
2023-01-26T23:28:40.664Z,43.97
2023-01-26T23:31:26.282Z,29.95
2023-01-26T23:34:11.647Z,38.42
2023-01-26T23:36:57.181Z,30.85
2023-01-26T23:39:42.603Z,34.08
2023-01-26T23:42:28.542Z,28.95
2023-01-26T23:45:18.112Z,34.50
2023-01-26T23:48:04.017Z,29.05
2023-01-26T23:50:54.512Z,40.47
2023-01-26T23:53:39.980Z,38.03
2023-01-26T23:56:25.399Z,35.28
2023-01-26T23:59:13.691Z,26.48
